sensor_id;sensor_type;location;lat;lon;timestamp;pressure;altitude;pressure_sealevel;temperature;humidity
12073;BME280;6098;49.004;8.372;2023-02-22T00:14:47;100256.31;;;8.59;72.30
12073;BME280;6098;49.004;8.372;2023-02-22T00:29:42;100260.03;;;8.53;72.97
12073;BME280;6098;49.004;8.372;2023-02-22T00:44:28;100275.23;;;8.03;73.46
12073;BME280;6098;49.004;8.372;2023-02-22T00:59:20;100261.52;;;7.61;75.03
12073;BME280;6098;49.004;8.372;2023-02-22T01:14:13;100247.16;;;7.41;75.95
12073;BME280;6098;49.004;8.372;2023-02-22T01:29:04;100230.17;;;7.20;77.44
12073;BME280;6098;49.004;8.372;2023-02-22T01:43:56;100222.42;;;7.14;78.47
12073;BME280;6098;49.004;8.372;2023-02-22T02:13:43;100203.84;;;7.04;79.26
12073;BME280;6098;49.004;8.372;2023-02-22T02:44:41;100187.48;;;6.59;80.61
12073;BME280;6098;49.004;8.372;2023-02-22T02:59:38;100172.60;;;6.40;80.63
12073;BME280;6098;49.004;8.372;2023-02-22T03:29:31;100162.22;;;6.34;82.36
12073;BME280;6098;49.004;8.372;2023-02-22T03:44:25;100156.13;;;6.32;82.24
12073;BME280;6098;49.004;8.372;2023-02-22T03:59:17;100163.63;;;6.30;82.13
12073;BME280;6098;49.004;8.372;2023-02-22T04:14:09;100165.09;;;6.25;82.26
12073;BME280;6098;49.004;8.372;2023-02-22T04:29:03;100161.72;;;6.19;83.26
12073;BME280;6098;49.004;8.372;2023-02-22T04:44:12;100156.69;;;6.10;83.44
12073;BME280;6098;49.004;8.372;2023-02-22T04:59:06;100149.94;;;5.99;83.91
12073;BME280;6098;49.004;8.372;2023-02-22T05:13:57;100155.44;;;5.88;84.69
12073;BME280;6098;49.004;8.372;2023-02-22T05:28:47;100159.96;;;5.81;84.39
12073;BME280;6098;49.004;8.372;2023-02-22T05:43:39;100161.53;;;5.70;84.43
12073;BME280;6098;49.004;8.372;2023-02-22T05:58:32;100161.74;;;5.61;84.96
12073;BME280;6098;49.004;8.372;2023-02-22T06:13:24;100167.01;;;5.60;84.95
12073;BME280;6098;49.004;8.372;2023-02-22T06:28:14;100171.95;;;5.55;84.62
12073;BME280;6098;49.004;8.372;2023-02-22T06:43:07;100174.94;;;5.58;84.52
12073;BME280;6098;49.004;8.372;2023-02-22T06:57:57;100187.52;;;5.64;84.54
12073;BME280;6098;49.004;8.372;2023-02-22T07:12:49;100204.05;;;5.71;84.07
12073;BME280;6098;49.004;8.372;2023-02-22T07:27:40;100205.94;;;5.86;84.29
12073;BME280;6098;49.004;8.372;2023-02-22T07:42:30;100194.80;;;6.11;83.62
12073;BME280;6098;49.004;8.372;2023-02-22T07:57:22;100190.78;;;6.33;83.07
12073;BME280;6098;49.004;8.372;2023-02-22T08:12:16;100183.25;;;6.52;82.25
12073;BME280;6098;49.004;8.372;2023-02-22T08:27:08;100190.06;;;6.77;80.87
12073;BME280;6098;49.004;8.372;2023-02-22T08:42:00;100187.42;;;7.09;78.95
12073;BME280;6098;49.004;8.372;2023-02-22T08:56:53;100178.81;;;7.49;77.94
12073;BME280;6098;49.004;8.372;2023-02-22T09:11:47;100181.19;;;7.86;77.30
12073;BME280;6098;49.004;8.372;2023-02-22T09:26:39;100171.20;;;8.24;75.92
12073;BME280;6098;49.004;8.372;2023-02-22T09:56:47;100154.66;;;9.31;73.01
12073;BME280;6098;49.004;8.372;2023-02-22T10:11:59;100143.77;;;9.95;69.69
12073;BME280;6098;49.004;8.372;2023-02-22T10:26:52;100145.16;;;10.47;67.16
12073;BME280;6098;49.004;8.372;2023-02-22T10:41:44;100132.80;;;10.78;66.15
12073;BME280;6098;49.004;8.372;2023-02-22T10:56:36;100138.54;;;11.08;63.00
12073;BME280;6098;49.004;8.372;2023-02-22T11:11:28;100118.14;;;11.28;60.77
12073;BME280;6098;49.004;8.372;2023-02-22T11:26:20;100092.23;;;11.61;58.68
12073;BME280;6098;49.004;8.372;2023-02-22T11:41:14;100078.18;;;12.05;57.97
12073;BME280;6098;49.004;8.372;2023-02-22T12:26:13;100037.78;;;13.48;54.20
12073;BME280;6098;49.004;8.372;2023-02-22T13:11:42;100030.87;;;14.35;51.38
12073;BME280;6098;49.004;8.372;2023-02-22T13:26:46;100018.98;;;14.41;52.85
12073;BME280;6098;49.004;8.372;2023-02-22T13:56:42;100004.84;;;14.76;53.14
12073;BME280;6098;49.004;8.372;2023-02-22T14:41:23;100003.74;;;14.43;56.61
12073;BME280;6098;49.004;8.372;2023-02-22T14:56:18;99997.08;;;14.36;57.20
12073;BME280;6098;49.004;8.372;2023-02-22T15:11:23;99985.97;;;14.29;56.88
12073;BME280;6098;49.004;8.372;2023-02-22T15:26:31;99989.95;;;14.21;56.48
12073;BME280;6098;49.004;8.372;2023-02-22T15:41:23;99988.05;;;14.16;57.08
12073;BME280;6098;49.004;8.372;2023-02-22T15:56:15;99991.94;;;13.96;58.22
12073;BME280;6098;49.004;8.372;2023-02-22T16:11:10;100001.20;;;13.81;59.35
12073;BME280;6098;49.004;8.372;2023-02-22T16:26:18;100005.14;;;13.59;60.12
12073;BME280;6098;49.004;8.372;2023-02-22T16:41:11;100002.91;;;13.36;61.23
12073;BME280;6098;49.004;8.372;2023-02-22T16:56:07;100018.48;;;13.12;62.45
12073;BME280;6098;49.004;8.372;2023-02-22T17:11:12;100030.45;;;12.87;65.19
12073;BME280;6098;49.004;8.372;2023-02-22T17:26:15;100039.41;;;12.69;68.55
12073;BME280;6098;49.004;8.372;2023-02-22T17:41:12;100056.05;;;12.56;70.32
12073;BME280;6098;49.004;8.372;2023-02-22T17:56:16;100061.01;;;12.46;71.07
12073;BME280;6098;49.004;8.372;2023-02-22T18:11:07;100054.27;;;12.40;71.46
12073;BME280;6098;49.004;8.372;2023-02-22T18:25:59;100048.39;;;12.33;72.36
12073;BME280;6098;49.004;8.372;2023-02-22T18:41:11;100056.19;;;12.28;73.01
12073;BME280;6098;49.004;8.372;2023-02-22T18:56:08;100046.89;;;12.19;73.83
12073;BME280;6098;49.004;8.372;2023-02-22T19:11:03;100047.55;;;12.06;74.19
12073;BME280;6098;49.004;8.372;2023-02-22T19:25:59;100051.31;;;11.93;74.82
12073;BME280;6098;49.004;8.372;2023-02-22T19:41:11;100048.23;;;11.84;75.70
12073;BME280;6098;49.004;8.372;2023-02-22T19:56:08;100043.55;;;11.71;77.24
12073;BME280;6098;49.004;8.372;2023-02-22T20:11:07;100048.59;;;11.68;78.25
12073;BME280;6098;49.004;8.372;2023-02-22T20:26:10;100064.18;;;11.75;77.68
12073;BME280;6098;49.004;8.372;2023-02-22T20:41:15;100064.59;;;11.76;77.00
12073;BME280;6098;49.004;8.372;2023-02-22T20:56:16;100073.83;;;11.77;78.40
12073;BME280;6098;49.004;8.372;2023-02-22T21:11:17;100080.19;;;11.73;79.82
12073;BME280;6098;49.004;8.372;2023-02-22T21:26:25;100078.53;;;11.71;80.55
12073;BME280;6098;49.004;8.372;2023-02-22T21:41:20;100078.59;;;11.70;81.21
12073;BME280;6098;49.004;8.372;2023-02-22T21:56:16;100069.11;;;11.64;82.31
12073;BME280;6098;49.004;8.372;2023-02-22T22:11:10;100071.92;;;11.61;84.73
12073;BME280;6098;49.004;8.372;2023-02-22T22:26:05;100070.58;;;11.51;86.82
12073;BME280;6098;49.004;8.372;2023-02-22T22:41:00;100058.41;;;11.47;87.77
12073;BME280;6098;49.004;8.372;2023-02-22T22:55:58;100060.58;;;11.39;88.84
12073;BME280;6098;49.004;8.372;2023-02-22T23:10:51;100056.30;;;11.36;90.39
12073;BME280;6098;49.004;8.372;2023-02-22T23:25:42;100059.59;;;11.32;91.01
12073;BME280;6098;49.004;8.372;2023-02-22T23:40:36;100055.35;;;11.28;92.88
12073;BME280;6098;49.004;8.372;2023-02-22T23:55:29;100057.11;;;11.19;94.91
